sensor_id;sensor_type;location;lat;lon;timestamp;pressure;altitude;pressure_sealevel;temperature;humidity
36898;BME280;22827;53.108;-6.738;2022-07-23T00:04:06;100445.66;;;13.63;46.60
36898;BME280;22827;53.108;-6.738;2022-07-23T00:06:33;100443.26;;;13.48;47.03
36898;BME280;22827;53.108;-6.738;2022-07-23T00:09:00;100445.62;;;14.12;46.95
36898;BME280;22827;53.108;-6.738;2022-07-23T00:11:27;100453.85;;;12.33;48.71
36898;BME280;22827;53.108;-6.738;2022-07-23T00:13:54;100449.39;;;14.68;47.16
36898;BME280;22827;53.108;-6.738;2022-07-23T00:16:21;100448.60;;;14.91;46.91
36898;BME280;22827;53.108;-6.738;2022-07-23T00:18:48;100453.01;;;15.57;46.34
36898;BME280;22827;53.108;-6.738;2022-07-23T00:21:15;100450.83;;;14.39;48.06
36898;BME280;22827;53.108;-6.738;2022-07-23T00:23:42;100453.60;;;15.05;47.91
36898;BME280;22827;53.108;-6.738;2022-07-23T00:26:08;100453.96;;;14.19;49.04
36898;BME280;22827;53.108;-6.738;2022-07-23T00:28:35;100450.90;;;14.07;48.81
36898;BME280;22827;53.108;-6.738;2022-07-23T00:31:02;100446.38;;;15.70;47.45
36898;BME280;22827;53.108;-6.738;2022-07-23T00:33:29;100439.12;;;14.56;48.25
36898;BME280;22827;53.108;-6.738;2022-07-23T00:35:56;100435.16;;;14.71;48.54
36898;BME280;22827;53.108;-6.738;2022-07-23T00:38:22;100431.68;;;14.08;50.57
36898;BME280;22827;53.108;-6.738;2022-07-23T00:40:49;100433.36;;;15.02;50.65
36898;BME280;22827;53.108;-6.738;2022-07-23T00:43:16;100434.93;;;13.72;52.53
36898;BME280;22827;53.108;-6.738;2022-07-23T00:45:43;100434.53;;;13.86;54.15
36898;BME280;22827;53.108;-6.738;2022-07-23T00:48:10;100428.14;;;14.76;53.01
36898;BME280;22827;53.108;-6.738;2022-07-23T00:50:37;100429.92;;;14.49;52.86
36898;BME280;22827;53.108;-6.738;2022-07-23T00:53:05;100427.80;;;14.46;53.86
36898;BME280;22827;53.108;-6.738;2022-07-23T00:55:33;100426.08;;;13.95;54.48
36898;BME280;22827;53.108;-6.738;2022-07-23T00:58:01;100419.63;;;15.00;52.51
36898;BME280;22827;53.108;-6.738;2022-07-23T01:00:29;100422.73;;;14.12;55.69
36898;BME280;22827;53.108;-6.738;2022-07-23T01:02:57;100422.98;;;13.69;55.20
36898;BME280;22827;53.108;-6.738;2022-07-23T01:05:24;100415.43;;;14.32;53.78
36898;BME280;22827;53.108;-6.738;2022-07-23T01:07:52;100411.60;;;14.35;54.19
36898;BME280;22827;53.108;-6.738;2022-07-23T01:10:19;100409.52;;;14.47;54.92
36898;BME280;22827;53.108;-6.738;2022-07-23T01:12:46;100405.42;;;13.58;56.37
36898;BME280;22827;53.108;-6.738;2022-07-23T01:15:12;100398.35;;;14.50;55.67
36898;BME280;22827;53.108;-6.738;2022-07-23T01:17:39;100387.80;;;14.86;54.36
36898;BME280;22827;53.108;-6.738;2022-07-23T01:20:07;100381.61;;;13.95;56.23
36898;BME280;22827;53.108;-6.738;2022-07-23T01:22:34;100375.47;;;13.98;57.49
36898;BME280;22827;53.108;-6.738;2022-07-23T01:25:01;100372.68;;;13.67;58.55
36898;BME280;22827;53.108;-6.738;2022-07-23T01:27:28;100367.08;;;13.63;59.10
36898;BME280;22827;53.108;-6.738;2022-07-23T01:29:55;100373.10;;;13.41;60.68
36898;BME280;22827;53.108;-6.738;2022-07-23T01:32:23;100369.18;;;13.47;59.91
36898;BME280;22827;53.108;-6.738;2022-07-23T01:34:50;100368.97;;;13.32;60.89
36898;BME280;22827;53.108;-6.738;2022-07-23T01:37:17;100369.66;;;13.03;61.54
36898;BME280;22827;53.108;-6.738;2022-07-23T01:39:44;100363.68;;;13.15;61.51
36898;BME280;22827;53.108;-6.738;2022-07-23T01:42:11;100354.62;;;12.74;62.54
36898;BME280;22827;53.108;-6.738;2022-07-23T01:44:38;100357.23;;;13.32;61.47
36898;BME280;22827;53.108;-6.738;2022-07-23T01:47:05;100359.63;;;13.02;61.98
36898;BME280;22827;53.108;-6.738;2022-07-23T01:49:32;100358.76;;;12.62;62.63
36898;BME280;22827;53.108;-6.738;2022-07-23T01:51:59;100356.34;;;13.43;61.04
36898;BME280;22827;53.108;-6.738;2022-07-23T01:54:26;100352.57;;;13.84;60.17
36898;BME280;22827;53.108;-6.738;2022-07-23T01:56:53;100357.41;;;12.89;60.88
36898;BME280;22827;53.108;-6.738;2022-07-23T01:59:20;100351.60;;;13.62;59.28
36898;BME280;22827;53.108;-6.738;2022-07-23T02:01:47;100344.10;;;14.23;58.02
36898;BME280;22827;53.108;-6.738;2022-07-23T02:04:15;100340.99;;;13.76;59.54
36898;BME280;22827;53.108;-6.738;2022-07-23T02:06:42;100335.74;;;13.24;60.68
36898;BME280;22827;53.108;-6.738;2022-07-23T02:09:09;100330.01;;;12.83;61.77
36898;BME280;22827;53.108;-6.738;2022-07-23T02:11:36;100328.13;;;12.47;62.89
36898;BME280;22827;53.108;-6.738;2022-07-23T02:14:03;100323.16;;;12.49;64.81
36898;BME280;22827;53.108;-6.738;2022-07-23T02:16:30;100319.98;;;12.46;64.95
36898;BME280;22827;53.108;-6.738;2022-07-23T02:18:57;100317.42;;;12.64;65.27
36898;BME280;22827;53.108;-6.738;2022-07-23T02:21:24;100316.34;;;12.93;65.52
36898;BME280;22827;53.108;-6.738;2022-07-23T02:23:50;100313.76;;;12.70;65.42
36898;BME280;22827;53.108;-6.738;2022-07-23T02:26:17;100312.35;;;11.81;65.51
36898;BME280;22827;53.108;-6.738;2022-07-23T02:28:44;100308.74;;;12.62;65.16
36898;BME280;22827;53.108;-6.738;2022-07-23T02:31:11;100311.42;;;12.84;64.42
36898;BME280;22827;53.108;-6.738;2022-07-23T02:33:38;100311.22;;;12.27;65.45
36898;BME280;22827;53.108;-6.738;2022-07-23T02:36:05;100305.68;;;11.95;65.80
36898;BME280;22827;53.108;-6.738;2022-07-23T02:38:32;100303.21;;;12.79;63.84
36898;BME280;22827;53.108;-6.738;2022-07-23T02:40:59;100300.23;;;13.63;62.89
36898;BME280;22827;53.108;-6.738;2022-07-23T02:43:26;100296.08;;;13.16;62.84
36898;BME280;22827;53.108;-6.738;2022-07-23T02:45:53;100295.41;;;13.02;63.19
36898;BME280;22827;53.108;-6.738;2022-07-23T02:48:20;100295.40;;;12.64;64.94
36898;BME280;22827;53.108;-6.738;2022-07-23T02:50:47;100294.88;;;13.15;62.79
36898;BME280;22827;53.108;-6.738;2022-07-23T02:53:14;100296.84;;;12.51;64.29
36898;BME280;22827;53.108;-6.738;2022-07-23T02:55:41;100289.29;;;12.94;63.79
36898;BME280;22827;53.108;-6.738;2022-07-23T02:58:07;100287.56;;;13.21;63.05
36898;BME280;22827;53.108;-6.738;2022-07-23T03:00:34;100285.20;;;13.65;61.97
36898;BME280;22827;53.108;-6.738;2022-07-23T03:03:01;100285.16;;;12.86;63.70
36898;BME280;22827;53.108;-6.738;2022-07-23T03:05:28;100279.21;;;13.11;63.82
36898;BME280;22827;53.108;-6.738;2022-07-23T03:07:55;100278.15;;;13.43;62.79
36898;BME280;22827;53.108;-6.738;2022-07-23T03:10:22;100276.68;;;13.44;64.58
36898;BME280;22827;53.108;-6.738;2022-07-23T03:12:48;100276.34;;;12.76;66.13
36898;BME280;22827;53.108;-6.738;2022-07-23T03:15:15;100276.52;;;12.05;66.79
36898;BME280;22827;53.108;-6.738;2022-07-23T03:17:43;100271.11;;;12.28;66.53
36898;BME280;22827;53.108;-6.738;2022-07-23T03:20:10;100270.29;;;12.54;65.72
36898;BME280;22827;53.108;-6.738;2022-07-23T03:22:38;100264.30;;;12.93;64.82
36898;BME280;22827;53.108;-6.738;2022-07-23T03:25:06;100260.48;;;12.96;64.40
36898;BME280;22827;53.108;-6.738;2022-07-23T03:27:34;100257.64;;;12.25;66.51
36898;BME280;22827;53.108;-6.738;2022-07-23T03:30:01;100247.65;;;13.65;64.18
36898;BME280;22827;53.108;-6.738;2022-07-23T03:32:28;100254.40;;;12.99;64.98
36898;BME280;22827;53.108;-6.738;2022-07-23T03:34:55;100254.08;;;13.28;64.21
36898;BME280;22827;53.108;-6.738;2022-07-23T03:37:22;100256.22;;;12.72;65.12
36898;BME280;22827;53.108;-6.738;2022-07-23T03:39:49;100255.10;;;13.38;63.93
36898;BME280;22827;53.108;-6.738;2022-07-23T03:42:16;100252.98;;;12.82;65.41
36898;BME280;22827;53.108;-6.738;2022-07-23T03:44:43;100244.48;;;13.22;64.13
36898;BME280;22827;53.108;-6.738;2022-07-23T03:47:10;100238.14;;;13.58;63.55
36898;BME280;22827;53.108;-6.738;2022-07-23T03:49:37;100232.93;;;13.41;64.09
36898;BME280;22827;53.108;-6.738;2022-07-23T03:52:05;100233.55;;;13.25;64.03
36898;BME280;22827;53.108;-6.738;2022-07-23T03:54:32;100234.80;;;12.83;65.22
36898;BME280;22827;53.108;-6.738;2022-07-23T03:56:59;100237.00;;;13.14;64.88
36898;BME280;22827;53.108;-6.738;2022-07-23T03:59:26;100234.32;;;13.26;64.64
36898;BME280;22827;53.108;-6.738;2022-07-23T04:01:53;100228.36;;;13.74;63.49
36898;BME280;22827;53.108;-6.738;2022-07-23T04:04:20;100223.78;;;13.41;63.14
36898;BME280;22827;53.108;-6.738;2022-07-23T04:06:47;100223.08;;;12.74;65.38
36898;BME280;22827;53.108;-6.738;2022-07-23T04:09:14;100216.27;;;13.16;64.81
36898;BME280;22827;53.108;-6.738;2022-07-23T04:11:40;100219.12;;;13.39;64.29
36898;BME280;22827;53.108;-6.738;2022-07-23T04:14:07;100215.59;;;13.26;64.70
36898;BME280;22827;53.108;-6.738;2022-07-23T04:16:34;100214.63;;;13.07;64.78
36898;BME280;22827;53.108;-6.738;2022-07-23T04:19:01;100212.20;;;12.87;65.18
36898;BME280;22827;53.108;-6.738;2022-07-23T04:21:28;100209.10;;;13.64;63.61
36898;BME280;22827;53.108;-6.738;2022-07-23T04:23:55;100210.32;;;14.03;62.07
36898;BME280;22827;53.108;-6.738;2022-07-23T04:26:21;100209.32;;;13.43;62.84
36898;BME280;22827;53.108;-6.738;2022-07-23T04:28:48;100206.80;;;13.30;64.24
36898;BME280;22827;53.108;-6.738;2022-07-23T04:31:15;100208.36;;;13.07;63.38
36898;BME280;22827;53.108;-6.738;2022-07-23T04:33:42;100207.87;;;13.33;64.41
36898;BME280;22827;53.108;-6.738;2022-07-23T04:36:10;100205.40;;;13.52;64.74
36898;BME280;22827;53.108;-6.738;2022-07-23T04:38:36;100205.66;;;13.13;64.55
36898;BME280;22827;53.108;-6.738;2022-07-23T04:41:04;100200.46;;;13.02;64.68
36898;BME280;22827;53.108;-6.738;2022-07-23T04:43:31;100202.80;;;12.77;65.53
36898;BME280;22827;53.108;-6.738;2022-07-23T04:45:58;100197.26;;;13.17;64.63
36898;BME280;22827;53.108;-6.738;2022-07-23T04:48:25;100195.19;;;13.28;64.56
36898;BME280;22827;53.108;-6.738;2022-07-23T04:50:51;100200.76;;;12.54;66.47
36898;BME280;22827;53.108;-6.738;2022-07-23T04:53:18;100201.03;;;12.85;65.64
36898;BME280;22827;53.108;-6.738;2022-07-23T04:55:45;100196.48;;;13.18;64.95
36898;BME280;22827;53.108;-6.738;2022-07-23T04:58:13;100194.51;;;12.96;64.15
36898;BME280;22827;53.108;-6.738;2022-07-23T05:00:40;100187.47;;;13.41;64.13
36898;BME280;22827;53.108;-6.738;2022-07-23T05:03:07;100191.60;;;13.74;62.58
36898;BME280;22827;53.108;-6.738;2022-07-23T05:05:33;100188.07;;;13.61;63.06
36898;BME280;22827;53.108;-6.738;2022-07-23T05:08:00;100185.08;;;14.49;62.85
36898;BME280;22827;53.108;-6.738;2022-07-23T05:10:27;100184.24;;;13.46;63.36
36898;BME280;22827;53.108;-6.738;2022-07-23T05:12:54;100176.06;;;13.55;62.80
36898;BME280;22827;53.108;-6.738;2022-07-23T05:15:21;100177.43;;;13.37;63.13
36898;BME280;22827;53.108;-6.738;2022-07-23T05:17:49;100174.08;;;13.28;63.30
36898;BME280;22827;53.108;-6.738;2022-07-23T05:20:16;100173.60;;;13.06;63.52
36898;BME280;22827;53.108;-6.738;2022-07-23T05:22:43;100172.12;;;13.33;63.00
36898;BME280;22827;53.108;-6.738;2022-07-23T05:25:10;100171.45;;;13.06;62.37
36898;BME280;22827;53.108;-6.738;2022-07-23T05:27:36;100171.39;;;13.33;63.34
36898;BME280;22827;53.108;-6.738;2022-07-23T05:30:04;100172.12;;;12.32;65.00
36898;BME280;22827;53.108;-6.738;2022-07-23T05:32:31;100169.60;;;12.38;65.40
36898;BME280;22827;53.108;-6.738;2022-07-23T05:34:59;100163.90;;;12.73;64.35
36898;BME280;22827;53.108;-6.738;2022-07-23T05:37:26;100167.37;;;12.93;65.52
36898;BME280;22827;53.108;-6.738;2022-07-23T05:39:53;100163.77;;;13.63;63.81
36898;BME280;22827;53.108;-6.738;2022-07-23T05:42:20;100158.43;;;13.15;63.94
36898;BME280;22827;53.108;-6.738;2022-07-23T05:44:47;100161.10;;;12.74;65.02
36898;BME280;22827;53.108;-6.738;2022-07-23T05:47:14;100157.27;;;12.89;64.18
36898;BME280;22827;53.108;-6.738;2022-07-23T05:49:41;100160.77;;;12.33;65.96
36898;BME280;22827;53.108;-6.738;2022-07-23T05:52:08;100153.55;;;13.34;64.53
36898;BME280;22827;53.108;-6.738;2022-07-23T05:54:35;100151.00;;;13.16;64.00
36898;BME280;22827;53.108;-6.738;2022-07-23T05:57:03;100145.91;;;13.23;66.19
36898;BME280;22827;53.108;-6.738;2022-07-23T05:59:30;100148.06;;;12.00;66.49
36898;BME280;22827;53.108;-6.738;2022-07-23T06:01:57;100140.32;;;12.62;66.50
36898;BME280;22827;53.108;-6.738;2022-07-23T06:04:24;100136.61;;;12.17;67.76
36898;BME280;22827;53.108;-6.738;2022-07-23T06:06:52;100135.88;;;13.38;65.74
36898;BME280;22827;53.108;-6.738;2022-07-23T06:09:19;100133.84;;;13.12;65.54
36898;BME280;22827;53.108;-6.738;2022-07-23T06:11:46;100128.85;;;13.10;64.44
36898;BME280;22827;53.108;-6.738;2022-07-23T06:14:14;100129.08;;;13.28;64.06
36898;BME280;22827;53.108;-6.738;2022-07-23T06:16:41;100125.67;;;12.80;65.61
36898;BME280;22827;53.108;-6.738;2022-07-23T06:19:07;100125.21;;;12.42;66.49
36898;BME280;22827;53.108;-6.738;2022-07-23T06:21:34;100125.83;;;13.08;64.97
36898;BME280;22827;53.108;-6.738;2022-07-23T06:24:02;100121.92;;;13.20;66.27
36898;BME280;22827;53.108;-6.738;2022-07-23T06:26:29;100115.29;;;12.36;66.55
36898;BME280;22827;53.108;-6.738;2022-07-23T06:28:57;100117.85;;;13.09;64.54
36898;BME280;22827;53.108;-6.738;2022-07-23T06:31:24;100108.02;;;12.92;65.28
36898;BME280;22827;53.108;-6.738;2022-07-23T06:33:51;100112.10;;;13.04;65.01
36898;BME280;22827;53.108;-6.738;2022-07-23T06:36:18;100108.82;;;13.43;64.69
36898;BME280;22827;53.108;-6.738;2022-07-23T06:38:45;100104.87;;;13.06;65.36
36898;BME280;22827;53.108;-6.738;2022-07-23T06:41:11;100104.59;;;13.25;64.80
36898;BME280;22827;53.108;-6.738;2022-07-23T06:43:38;100102.43;;;13.45;64.22
36898;BME280;22827;53.108;-6.738;2022-07-23T06:46:06;100097.74;;;13.40;64.49
36898;BME280;22827;53.108;-6.738;2022-07-23T06:48:33;100091.64;;;14.00;63.42
36898;BME280;22827;53.108;-6.738;2022-07-23T06:51:00;100094.07;;;12.93;63.78
36898;BME280;22827;53.108;-6.738;2022-07-23T06:53:27;100091.31;;;13.84;63.95
36898;BME280;22827;53.108;-6.738;2022-07-23T06:55:53;100082.23;;;13.13;65.45
36898;BME280;22827;53.108;-6.738;2022-07-23T06:58:21;100079.42;;;12.88;66.24
36898;BME280;22827;53.108;-6.738;2022-07-23T07:00:48;100072.71;;;12.40;68.17
36898;BME280;22827;53.108;-6.738;2022-07-23T07:03:16;100068.11;;;12.97;68.60
36898;BME280;22827;53.108;-6.738;2022-07-23T07:05:44;100076.95;;;13.20;68.87
36898;BME280;22827;53.108;-6.738;2022-07-23T07:08:10;100070.89;;;12.55;69.25
36898;BME280;22827;53.108;-6.738;2022-07-23T07:10:38;100064.05;;;13.22;67.95
36898;BME280;22827;53.108;-6.738;2022-07-23T07:13:06;100058.23;;;12.87;68.70
36898;BME280;22827;53.108;-6.738;2022-07-23T07:15:33;100062.54;;;13.04;68.88
36898;BME280;22827;53.108;-6.738;2022-07-23T07:18:01;100057.63;;;12.74;69.50
36898;BME280;22827;53.108;-6.738;2022-07-23T07:20:27;100056.34;;;12.89;69.11
36898;BME280;22827;53.108;-6.738;2022-07-23T07:22:54;100058.65;;;11.94;71.34
36898;BME280;22827;53.108;-6.738;2022-07-23T07:25:21;100058.44;;;13.64;67.83
36898;BME280;22827;53.108;-6.738;2022-07-23T07:27:48;100059.53;;;13.19;67.33
36898;BME280;22827;53.108;-6.738;2022-07-23T07:30:15;100053.12;;;13.10;67.49
36898;BME280;22827;53.108;-6.738;2022-07-23T07:32:42;100051.91;;;12.60;69.02
36898;BME280;22827;53.108;-6.738;2022-07-23T07:35:09;100054.12;;;12.84;68.56
36898;BME280;22827;53.108;-6.738;2022-07-23T07:37:37;100054.83;;;12.92;68.51
36898;BME280;22827;53.108;-6.738;2022-07-23T07:40:05;100053.75;;;13.02;68.43
36898;BME280;22827;53.108;-6.738;2022-07-23T07:42:32;100045.99;;;13.36;67.24
36898;BME280;22827;53.108;-6.738;2022-07-23T07:44:59;100046.48;;;12.43;70.78
36898;BME280;22827;53.108;-6.738;2022-07-23T07:47:26;100046.57;;;12.93;69.87
36898;BME280;22827;53.108;-6.738;2022-07-23T07:49:53;100047.12;;;13.56;67.63
36898;BME280;22827;53.108;-6.738;2022-07-23T07:52:20;100039.74;;;13.44;67.65
36898;BME280;22827;53.108;-6.738;2022-07-23T07:54:47;100036.96;;;13.23;68.14
36898;BME280;22827;53.108;-6.738;2022-07-23T07:57:13;100029.81;;;13.67;67.38
36898;BME280;22827;53.108;-6.738;2022-07-23T07:59:40;100032.59;;;12.96;68.77
36898;BME280;22827;53.108;-6.738;2022-07-23T08:02:07;100038.69;;;13.38;67.84
36898;BME280;22827;53.108;-6.738;2022-07-23T08:04:34;100032.84;;;13.34;68.07
36898;BME280;22827;53.108;-6.738;2022-07-23T08:07:01;100031.65;;;13.54;68.25
36898;BME280;22827;53.108;-6.738;2022-07-23T08:09:28;100025.33;;;13.74;66.86
36898;BME280;22827;53.108;-6.738;2022-07-23T08:11:54;100023.81;;;13.28;67.93
36898;BME280;22827;53.108;-6.738;2022-07-23T08:14:21;100020.44;;;13.57;67.27
36898;BME280;22827;53.108;-6.738;2022-07-23T08:16:48;100025.03;;;13.49;67.94
36898;BME280;22827;53.108;-6.738;2022-07-23T08:19:15;100023.00;;;13.26;68.56
36898;BME280;22827;53.108;-6.738;2022-07-23T08:21:42;100017.05;;;13.30;68.04
36898;BME280;22827;53.108;-6.738;2022-07-23T08:24:08;100006.39;;;13.72;67.48
36898;BME280;22827;53.108;-6.738;2022-07-23T08:26:35;100008.56;;;13.04;68.71
36898;BME280;22827;53.108;-6.738;2022-07-23T08:29:02;100001.13;;;13.60;69.67
36898;BME280;22827;53.108;-6.738;2022-07-23T08:31:29;100000.67;;;12.46;71.14
36898;BME280;22827;53.108;-6.738;2022-07-23T08:33:56;100002.61;;;12.65;71.43
36898;BME280;22827;53.108;-6.738;2022-07-23T08:36:22;100004.35;;;12.88;71.80
36898;BME280;22827;53.108;-6.738;2022-07-23T08:38:49;99997.12;;;13.41;70.55
36898;BME280;22827;53.108;-6.738;2022-07-23T08:41:17;99994.39;;;13.79;69.83
36898;BME280;22827;53.108;-6.738;2022-07-23T08:43:44;99993.62;;;13.56;70.35
36898;BME280;22827;53.108;-6.738;2022-07-23T08:46:13;99989.65;;;13.30;70.28
36898;BME280;22827;53.108;-6.738;2022-07-23T08:48:41;99980.04;;;13.47;69.46
36898;BME280;22827;53.108;-6.738;2022-07-23T08:51:08;99977.39;;;13.94;67.87
36898;BME280;22827;53.108;-6.738;2022-07-23T08:53:35;99984.94;;;13.44;66.68
36898;BME280;22827;53.108;-6.738;2022-07-23T08:56:03;99988.98;;;14.03;66.13
36898;BME280;22827;53.108;-6.738;2022-07-23T08:58:31;99981.24;;;14.57;64.48
36898;BME280;22827;53.108;-6.738;2022-07-23T09:00:59;99977.77;;;14.56;64.32
36898;BME280;22827;53.108;-6.738;2022-07-23T09:03:27;99980.68;;;14.19;65.53
36898;BME280;22827;53.108;-6.738;2022-07-23T09:05:55;99975.04;;;14.24;65.42
36898;BME280;22827;53.108;-6.738;2022-07-23T09:08:24;99988.33;;;14.59;65.14
36898;BME280;22827;53.108;-6.738;2022-07-23T09:10:54;99982.92;;;14.46;64.45
36898;BME280;22827;53.108;-6.738;2022-07-23T09:13:25;99978.63;;;14.71;64.96
36898;BME280;22827;53.108;-6.738;2022-07-23T09:15:55;99975.65;;;15.05;61.78
36898;BME280;22827;53.108;-6.738;2022-07-23T09:18:41;99978.14;;;14.65;63.13
36898;BME280;22827;53.108;-6.738;2022-07-23T09:21:13;99971.44;;;14.54;64.30
36898;BME280;22827;53.108;-6.738;2022-07-23T09:23:42;99963.20;;;14.48;64.78
36898;BME280;22827;53.108;-6.738;2022-07-23T09:26:20;99958.27;;;14.68;65.44
36898;BME280;22827;53.108;-6.738;2022-07-23T09:28:52;99954.36;;;13.93;66.41
36898;BME280;22827;53.108;-6.738;2022-07-23T09:31:19;99948.76;;;14.71;64.94
36898;BME280;22827;53.108;-6.738;2022-07-23T09:33:46;99949.63;;;15.08;64.27
36898;BME280;22827;53.108;-6.738;2022-07-23T09:36:13;99949.10;;;14.82;63.42
36898;BME280;22827;53.108;-6.738;2022-07-23T09:38:48;99943.77;;;15.11;61.29
36898;BME280;22827;53.108;-6.738;2022-07-23T09:41:16;99947.30;;;14.65;62.58
36898;BME280;22827;53.108;-6.738;2022-07-23T09:43:44;99947.03;;;15.51;60.72
36898;BME280;22827;53.108;-6.738;2022-07-23T09:46:20;99943.87;;;14.06;63.51
36898;BME280;22827;53.108;-6.738;2022-07-23T09:48:48;99941.98;;;15.93;61.11
36898;BME280;22827;53.108;-6.738;2022-07-23T09:51:15;99932.47;;;15.37;61.86
36898;BME280;22827;53.108;-6.738;2022-07-23T09:53:42;99932.16;;;14.94;64.01
36898;BME280;22827;53.108;-6.738;2022-07-23T09:56:09;99929.78;;;15.23;64.27
36898;BME280;22827;53.108;-6.738;2022-07-23T09:58:40;99931.72;;;14.61;65.21
36898;BME280;22827;53.108;-6.738;2022-07-23T10:01:07;99928.20;;;14.03;67.22
36898;BME280;22827;53.108;-6.738;2022-07-23T10:03:34;99931.60;;;14.27;67.28
36898;BME280;22827;53.108;-6.738;2022-07-23T10:06:02;99930.78;;;14.69;66.14
36898;BME280;22827;53.108;-6.738;2022-07-23T10:08:32;99930.25;;;15.34;63.68
36898;BME280;22827;53.108;-6.738;2022-07-23T10:11:01;99925.73;;;15.25;63.09
36898;BME280;22827;53.108;-6.738;2022-07-23T10:13:28;99917.13;;;15.68;63.13
36898;BME280;22827;53.108;-6.738;2022-07-23T10:15:56;99923.64;;;14.48;65.68
36898;BME280;22827;53.108;-6.738;2022-07-23T10:18:23;99920.55;;;15.55;65.23
36898;BME280;22827;53.108;-6.738;2022-07-23T10:20:51;99925.11;;;15.19;66.40
36898;BME280;22827;53.108;-6.738;2022-07-23T10:23:24;99922.08;;;15.07;65.38
36898;BME280;22827;53.108;-6.738;2022-07-23T10:26:00;99918.62;;;15.03;65.44
36898;BME280;22827;53.108;-6.738;2022-07-23T10:28:44;99917.20;;;14.46;67.38
36898;BME280;22827;53.108;-6.738;2022-07-23T10:31:24;99924.45;;;14.86;65.75
36898;BME280;22827;53.108;-6.738;2022-07-23T10:33:56;99915.84;;;15.61;63.89
36898;BME280;22827;53.108;-6.738;2022-07-23T10:36:31;99916.36;;;15.58;63.35
36898;BME280;22827;53.108;-6.738;2022-07-23T10:39:08;99920.22;;;15.30;64.59
36898;BME280;22827;53.108;-6.738;2022-07-23T10:41:39;99917.81;;;16.29;62.10
36898;BME280;22827;53.108;-6.738;2022-07-23T10:44:08;99918.79;;;15.41;62.96
36898;BME280;22827;53.108;-6.738;2022-07-23T10:46:35;99917.12;;;14.88;64.00
36898;BME280;22827;53.108;-6.738;2022-07-23T10:49:24;99912.98;;;14.89;65.35
36898;BME280;22827;53.108;-6.738;2022-07-23T10:52:16;99912.09;;;15.40;63.80
36898;BME280;22827;53.108;-6.738;2022-07-23T10:54:46;99913.30;;;14.96;64.57
36898;BME280;22827;53.108;-6.738;2022-07-23T10:57:14;99908.04;;;15.29;63.16
36898;BME280;22827;53.108;-6.738;2022-07-23T11:00:46;99912.61;;;15.32;64.09
36898;BME280;22827;53.108;-6.738;2022-07-23T11:03:56;99911.46;;;15.32;63.76
36898;BME280;22827;53.108;-6.738;2022-07-23T11:06:23;99910.66;;;15.98;62.78
36898;BME280;22827;53.108;-6.738;2022-07-23T11:09:23;99914.28;;;15.36;63.79
36898;BME280;22827;53.108;-6.738;2022-07-23T11:12:31;99913.10;;;15.94;63.35
36898;BME280;22827;53.108;-6.738;2022-07-23T11:15:00;99911.15;;;15.48;63.62
36898;BME280;22827;53.108;-6.738;2022-07-23T11:17:28;99905.91;;;15.51;63.12
36898;BME280;22827;53.108;-6.738;2022-07-23T11:20:16;99901.96;;;15.81;61.60
36898;BME280;22827;53.108;-6.738;2022-07-23T11:22:48;99893.21;;;15.10;63.13
36898;BME280;22827;53.108;-6.738;2022-07-23T11:25:49;99892.27;;;14.84;64.76
36898;BME280;22827;53.108;-6.738;2022-07-23T11:28:17;99889.16;;;15.06;64.32
36898;BME280;22827;53.108;-6.738;2022-07-23T11:30:46;99886.84;;;16.30;63.19
36898;BME280;22827;53.108;-6.738;2022-07-23T11:33:19;99880.59;;;17.04;60.14
36898;BME280;22827;53.108;-6.738;2022-07-23T11:35:49;99876.85;;;16.60;61.08
36898;BME280;22827;53.108;-6.738;2022-07-23T11:38:18;99882.37;;;16.77;60.92
36898;BME280;22827;53.108;-6.738;2022-07-23T11:40:49;99864.85;;;16.72;60.03
36898;BME280;22827;53.108;-6.738;2022-07-23T11:43:16;99867.03;;;16.65;59.88
36898;BME280;22827;53.108;-6.738;2022-07-23T11:45:45;99864.93;;;16.99;60.95
36898;BME280;22827;53.108;-6.738;2022-07-23T11:48:18;99876.00;;;16.57;60.69
36898;BME280;22827;53.108;-6.738;2022-07-23T11:50:46;99871.76;;;17.20;60.25
36898;BME280;22827;53.108;-6.738;2022-07-23T11:53:16;99874.26;;;16.60;60.80
36898;BME280;22827;53.108;-6.738;2022-07-23T11:55:47;99873.56;;;16.85;59.79
36898;BME280;22827;53.108;-6.738;2022-07-23T11:58:14;99875.53;;;16.36;60.00
36898;BME280;22827;53.108;-6.738;2022-07-23T12:00:42;99874.39;;;16.73;59.93
36898;BME280;22827;53.108;-6.738;2022-07-23T12:03:09;99876.65;;;16.36;61.44
36898;BME280;22827;53.108;-6.738;2022-07-23T12:05:38;99874.52;;;17.16;60.86
36898;BME280;22827;53.108;-6.738;2022-07-23T12:08:07;99875.82;;;16.75;62.07
36898;BME280;22827;53.108;-6.738;2022-07-23T12:10:35;99876.76;;;16.86;60.09
36898;BME280;22827;53.108;-6.738;2022-07-23T12:13:04;99871.88;;;16.70;59.63
36898;BME280;22827;53.108;-6.738;2022-07-23T12:15:33;99875.63;;;16.36;59.73
36898;BME280;22827;53.108;-6.738;2022-07-23T12:18:02;99873.89;;;17.87;55.77
36898;BME280;22827;53.108;-6.738;2022-07-23T12:20:31;99874.50;;;17.65;57.73
36898;BME280;22827;53.108;-6.738;2022-07-23T12:23:00;99869.30;;;16.91;58.52
36898;BME280;22827;53.108;-6.738;2022-07-23T12:25:29;99873.40;;;16.79;60.13
36898;BME280;22827;53.108;-6.738;2022-07-23T12:28:00;99858.75;;;17.31;59.41
36898;BME280;22827;53.108;-6.738;2022-07-23T12:30:31;99857.36;;;17.04;60.65
36898;BME280;22827;53.108;-6.738;2022-07-23T12:32:59;99847.12;;;17.12;60.74
36898;BME280;22827;53.108;-6.738;2022-07-23T12:35:34;99837.47;;;16.79;60.64
36898;BME280;22827;53.108;-6.738;2022-07-23T12:38:03;99838.74;;;18.06;58.61
36898;BME280;22827;53.108;-6.738;2022-07-23T12:40:33;99834.15;;;17.95;57.88
36898;BME280;22827;53.108;-6.738;2022-07-23T12:43:03;99836.34;;;18.27;56.44
36898;BME280;22827;53.108;-6.738;2022-07-23T12:45:44;99847.91;;;18.53;54.28
36898;BME280;22827;53.108;-6.738;2022-07-23T12:48:18;99841.93;;;18.44;54.91
36898;BME280;22827;53.108;-6.738;2022-07-23T12:50:51;99825.86;;;17.51;57.11
36898;BME280;22827;53.108;-6.738;2022-07-23T12:53:20;99815.77;;;17.69;57.63